createdAt,value
2019-03-22T00:02:19.757Z,7.50
2019-03-22T00:04:52.046Z,7.40
2019-03-22T00:07:23.360Z,7.40
2019-03-22T00:09:54.783Z,7.40
2019-03-22T00:12:27.390Z,7.40
2019-03-22T00:15:00.000Z,7.40
2019-03-22T00:17:31.312Z,7.40
2019-03-22T00:20:02.678Z,7.40
2019-03-22T00:22:34.143Z,7.40
2019-03-22T00:25:06.268Z,7.40
2019-03-22T00:27:38.543Z,7.40
2019-03-22T00:30:10.099Z,7.40
2019-03-22T00:32:41.411Z,7.40
2019-03-22T00:35:13.909Z,7.30
2019-03-22T00:37:45.310Z,7.30
2019-03-22T00:40:17.089Z,7.30
2019-03-22T00:42:48.373Z,7.30
2019-03-22T00:45:19.676Z,7.20
2019-03-22T00:47:53.094Z,7.20
2019-03-22T00:50:24.443Z,7.30
2019-03-22T00:52:55.869Z,7.30
2019-03-22T00:55:27.202Z,7.30
2019-03-22T00:57:58.540Z,7.30
2019-03-22T01:00:29.912Z,7.20
2019-03-22T01:03:01.237Z,7.20
2019-03-22T01:05:32.641Z,7.20
2019-03-22T01:08:04.082Z,7.20
2019-03-22T01:10:35.797Z,7.20
2019-03-22T01:13:07.178Z,7.20
2019-03-22T01:15:38.594Z,7.20
2019-03-22T01:18:11.012Z,7.20
2019-03-22T01:20:42.471Z,7.20
2019-03-22T01:23:13.794Z,7.20
2019-03-22T01:25:45.089Z,7.20
2019-03-22T01:28:17.658Z,7.10
2019-03-22T01:30:48.981Z,7.10
2019-03-22T01:33:20.407Z,7.10
2019-03-22T01:35:51.809Z,7.00
2019-03-22T01:38:23.090Z,7.00
2019-03-22T01:40:54.438Z,7.00
2019-03-22T01:43:25.927Z,7.00
2019-03-22T01:45:58.471Z,7.00
2019-03-22T01:48:29.782Z,7.00
2019-03-22T01:51:02.076Z,7.00
2019-03-22T01:53:33.388Z,6.90
2019-03-22T01:56:04.714Z,6.90
2019-03-22T01:58:36.036Z,6.90
2019-03-22T02:01:07.355Z,7.00
2019-03-22T02:03:38.783Z,6.90
2019-03-22T02:06:11.065Z,6.90
2019-03-22T02:08:42.478Z,6.90
2019-03-22T02:11:13.847Z,6.90
2019-03-22T02:13:46.244Z,6.80
2019-03-22T02:16:17.632Z,6.80
2019-03-22T02:18:48.974Z,6.80
2019-03-22T02:21:20.293Z,6.70
2019-03-22T02:23:52.347Z,6.70
2019-03-22T02:26:23.863Z,6.60
2019-03-22T02:28:55.157Z,6.50
2019-03-22T02:31:26.455Z,6.40
2019-03-22T02:33:57.834Z,6.30
2019-03-22T02:36:29.155Z,6.20
2019-03-22T02:39:00.509Z,6.20
2019-03-22T02:41:33.351Z,6.20
2019-03-22T02:44:04.720Z,6.20
2019-03-22T02:46:36.119Z,6.20
2019-03-22T02:49:07.422Z,6.20
2019-03-22T02:51:38.823Z,6.30
2019-03-22T02:54:10.184Z,6.30
2019-03-22T02:56:41.600Z,6.30
2019-03-22T02:59:13.013Z,6.30
2019-03-22T03:01:44.438Z,6.40
2019-03-22T03:04:15.729Z,6.40
2019-03-22T03:06:48.020Z,6.40
2019-03-22T03:09:19.449Z,6.40
2019-03-22T03:11:50.785Z,6.40
2019-03-22T03:14:22.105Z,6.40
2019-03-22T03:16:53.486Z,6.50
2019-03-22T03:19:24.790Z,6.50
2019-03-22T03:21:56.114Z,6.50
2019-03-22T03:24:28.447Z,6.50
2019-03-22T03:26:59.773Z,6.40
2019-03-22T03:29:31.087Z,6.40
2019-03-22T03:32:02.449Z,6.40
2019-03-22T03:34:33.863Z,6.40
2019-03-22T03:37:05.272Z,6.40
2019-03-22T03:39:37.822Z,6.40
2019-03-22T03:42:09.141Z,6.30
2019-03-22T03:44:40.511Z,6.30
2019-03-22T03:47:11.823Z,6.30
2019-03-22T03:49:43.139Z,6.30
2019-03-22T03:52:14.528Z,6.30
2019-03-22T03:54:45.817Z,6.30
2019-03-22T03:57:17.179Z,6.20
2019-03-22T03:59:48.516Z,6.20
2019-03-22T04:02:19.955Z,6.20
2019-03-22T04:04:51.261Z,6.20
2019-03-22T04:07:23.400Z,6.20
2019-03-22T04:09:54.761Z,6.20
2019-03-22T04:12:26.302Z,6.20
2019-03-22T04:14:57.660Z,6.20
2019-03-22T04:17:28.980Z,6.20
2019-03-22T04:20:00.478Z,6.20
2019-03-22T04:22:31.863Z,6.20
2019-03-22T04:25:03.182Z,6.20
2019-03-22T04:27:34.515Z,6.10
2019-03-22T04:30:06.676Z,6.10
2019-03-22T04:32:38.036Z,6.00
2019-03-22T04:35:09.838Z,6.10
2019-03-22T04:37:41.211Z,6.10
2019-03-22T04:40:24.779Z,6.00
2019-03-22T04:42:56.297Z,6.00
2019-03-22T04:45:30.110Z,6.00
2019-03-22T04:48:06.307Z,6.00
2019-03-22T04:50:40.688Z,5.90
2019-03-22T04:53:15.660Z,5.90
2019-03-22T04:55:49.482Z,5.90
2019-03-22T04:58:22.558Z,5.80
2019-03-22T05:00:55.400Z,5.80
2019-03-22T05:03:27.848Z,5.70
2019-03-22T05:06:02.442Z,5.70
2019-03-22T05:08:38.364Z,5.70
2019-03-22T05:11:11.758Z,5.60
2019-03-22T05:13:45.549Z,5.60
2019-03-22T05:16:18.724Z,5.60
2019-03-22T05:18:53.926Z,5.70
2019-03-22T05:21:28.177Z,5.70
2019-03-22T05:24:03.086Z,5.70
2019-03-22T05:26:36.027Z,5.70
2019-03-22T05:29:11.033Z,5.70
2019-03-22T05:32:16.207Z,5.80
2019-03-22T05:34:47.544Z,5.80
2019-03-22T05:37:18.857Z,5.90
2019-03-22T05:39:50.267Z,5.90
2019-03-22T05:42:21.829Z,5.90
2019-03-22T05:44:53.135Z,5.90
2019-03-22T05:47:25.715Z,5.90
2019-03-22T05:49:57.237Z,5.90
2019-03-22T05:52:28.666Z,5.90
2019-03-22T05:55:00.526Z,5.90
2019-03-22T05:57:31.942Z,5.90
2019-03-22T06:00:03.241Z,5.90
2019-03-22T06:02:34.575Z,5.90
2019-03-22T06:05:06.546Z,5.80
2019-03-22T06:07:37.940Z,5.80
2019-03-22T06:10:09.531Z,5.80
2019-03-22T06:12:40.895Z,5.80
2019-03-22T06:15:12.351Z,5.80
2019-03-22T06:17:51.547Z,5.80
2019-03-22T06:20:16.774Z,5.80
2019-03-22T06:22:48.160Z,5.80
2019-03-22T06:25:19.493Z,5.80
2019-03-22T06:27:50.881Z,5.80
2019-03-22T06:30:22.331Z,5.80
2019-03-22T06:32:53.695Z,5.80
2019-03-22T06:35:25.060Z,5.90
2019-03-22T06:37:56.384Z,5.90
2019-03-22T06:40:27.817Z,5.90
2019-03-22T06:43:00.243Z,5.90
2019-03-22T06:45:31.575Z,5.90
2019-03-22T06:48:02.910Z,6.00
2019-03-22T06:50:35.871Z,6.00
2019-03-22T06:53:07.198Z,6.00
2019-03-22T06:55:38.530Z,6.00
2019-03-22T06:58:09.947Z,6.00
2019-03-22T07:00:41.348Z,6.10
2019-03-22T07:03:12.852Z,6.10
2019-03-22T07:05:44.304Z,6.10
2019-03-22T07:08:15.743Z,6.10
2019-03-22T07:10:47.650Z,6.10
2019-03-22T07:16:15.956Z,6.20
2019-03-22T07:18:47.298Z,6.30
2019-03-22T07:21:18.633Z,6.30
2019-03-22T07:23:50.129Z,6.30
2019-03-22T07:26:21.476Z,6.40
2019-03-22T07:28:52.841Z,6.40
2019-03-22T07:31:24.331Z,6.50
2019-03-22T07:33:55.707Z,6.50
2019-03-22T07:36:27.088Z,6.50
2019-03-22T07:38:58.394Z,6.50
2019-03-22T07:41:49.993Z,6.50
2019-03-22T07:44:22.194Z,6.60
2019-03-22T07:46:53.527Z,6.70
2019-03-22T07:49:24.887Z,6.70
2019-03-22T07:51:56.215Z,6.70
2019-03-22T07:54:27.605Z,6.70
2019-03-22T07:56:59.064Z,6.70
2019-03-22T07:59:30.436Z,6.80
2019-03-22T08:02:03.281Z,6.90
2019-03-22T08:04:34.706Z,7.00
2019-03-22T08:07:06.050Z,7.00
2019-03-22T08:09:51.137Z,7.00
2019-03-22T08:12:34.170Z,7.00
2019-03-22T08:15:08.323Z,7.00
2019-03-22T08:17:40.857Z,7.10
2019-03-22T08:20:12.123Z,7.10
2019-03-22T08:22:43.434Z,7.20
2019-03-22T08:25:14.924Z,7.40
2019-03-22T08:27:46.253Z,7.50
2019-03-22T08:30:18.341Z,7.60
2019-03-22T08:32:50.615Z,7.70
2019-03-22T08:35:22.054Z,7.80
2019-03-22T08:37:53.401Z,7.90
2019-03-22T08:40:24.879Z,8.00
2019-03-22T08:42:57.347Z,8.10
2019-03-22T08:45:28.663Z,8.30
2019-03-22T08:48:01.131Z,8.40
2019-03-22T08:50:32.578Z,8.60
2019-03-22T08:53:03.963Z,8.70
2019-03-22T08:55:35.436Z,8.80
2019-03-22T08:58:06.786Z,8.90
2019-03-22T09:00:39.503Z,9.00
2019-03-22T09:03:11.353Z,9.10
2019-03-22T09:05:42.781Z,9.30
2019-03-22T09:08:16.093Z,9.50
2019-03-22T09:10:48.587Z,9.60
2019-03-22T09:13:20.853Z,9.80
2019-03-22T09:15:52.333Z,10.00
2019-03-22T09:18:23.762Z,10.20
2019-03-22T09:20:55.070Z,10.30
2019-03-22T09:23:26.451Z,10.50
2019-03-22T09:25:57.949Z,10.60
2019-03-22T09:28:30.163Z,10.70
2019-03-22T09:31:10.309Z,11.00
2019-03-22T09:33:34.666Z,11.10
2019-03-22T09:36:06.253Z,11.40
2019-03-22T09:38:37.667Z,11.60
2019-03-22T09:41:08.955Z,11.90
2019-03-22T09:43:40.381Z,12.20
2019-03-22T09:46:12.507Z,12.30
2019-03-22T09:48:44.065Z,12.50
2019-03-22T09:51:15.468Z,12.70
2019-03-22T09:53:46.812Z,12.80
2019-03-22T09:56:18.113Z,12.90
2019-03-22T09:58:49.492Z,13.20
2019-03-22T10:01:23.930Z,13.30
2019-03-22T10:03:55.061Z,13.40
2019-03-22T10:06:26.473Z,13.50
2019-03-22T10:08:57.867Z,13.70
2019-03-22T10:11:30.140Z,13.80
2019-03-22T10:14:01.603Z,14.00
2019-03-22T10:16:33.326Z,14.30
2019-03-22T10:19:04.623Z,14.50
2019-03-22T10:21:35.938Z,14.60
2019-03-22T10:24:07.274Z,14.80
2019-03-22T10:26:38.696Z,15.00
2019-03-22T10:29:10.017Z,15.20
2019-03-22T10:31:42.943Z,15.40
2019-03-22T10:34:14.321Z,15.70
2019-03-22T10:36:47.521Z,15.90
2019-03-22T10:39:18.935Z,16.10
2019-03-22T10:41:51.479Z,16.40
2019-03-22T10:44:23.071Z,16.70
2019-03-22T10:46:54.526Z,17.00
2019-03-22T10:49:25.925Z,17.30
2019-03-22T10:51:58.165Z,17.50
2019-03-22T10:54:29.883Z,17.80
2019-03-22T10:57:01.469Z,18.20
2019-03-22T10:59:32.770Z,18.30
2019-03-22T11:02:07.636Z,18.30
2019-03-22T11:04:41.817Z,18.50
2019-03-22T11:07:13.385Z,18.70
2019-03-22T11:09:44.872Z,18.70
2019-03-22T11:12:17.391Z,18.90
2019-03-22T11:14:52.973Z,19.50
2019-03-22T11:17:24.577Z,19.80
2019-03-22T11:19:57.538Z,20.00
2019-03-22T11:22:29.304Z,20.50
2019-03-22T11:25:01.149Z,20.90
2019-03-22T11:27:32.662Z,21.20
2019-03-22T11:30:05.010Z,21.60
2019-03-22T11:32:36.672Z,21.60
2019-03-22T11:35:09.271Z,21.90
2019-03-22T11:37:40.819Z,22.30
2019-03-22T11:40:13.976Z,22.50
2019-03-22T11:42:45.445Z,22.50
2019-03-22T11:48:00.561Z,22.00
2019-03-22T11:50:34.412Z,22.00
2019-03-22T11:53:06.776Z,21.80
2019-03-22T11:55:38.150Z,21.90
2019-03-22T11:58:11.324Z,22.30
2019-03-22T12:00:42.823Z,22.90
2019-03-22T12:03:14.128Z,23.30
2019-03-22T12:05:48.120Z,23.60
2019-03-22T12:08:25.763Z,23.50
2019-03-22T12:10:57.515Z,23.50
2019-03-22T12:13:30.511Z,23.80
2019-03-22T12:16:03.477Z,23.50
2019-03-22T12:18:35.260Z,23.80
2019-03-22T12:21:06.791Z,23.70
2019-03-22T12:23:39.274Z,23.90
2019-03-22T12:26:10.873Z,24.10
2019-03-22T12:28:42.254Z,23.40
2019-03-22T12:31:13.634Z,23.30
2019-03-22T12:33:44.988Z,23.50
2019-03-22T12:36:16.354Z,23.50
2019-03-22T12:38:47.788Z,23.60
2019-03-22T12:41:19.151Z,23.70
2019-03-22T12:43:52.345Z,24.20
2019-03-22T12:46:23.755Z,24.10
2019-03-22T12:48:55.142Z,23.90
2019-03-22T12:51:26.507Z,24.00
2019-03-22T12:53:58.023Z,24.40
2019-03-22T12:56:29.434Z,24.30
2019-03-22T12:59:00.854Z,23.90
2019-03-22T13:01:33.354Z,24.20
2019-03-22T13:04:04.694Z,24.50
2019-03-22T13:06:36.094Z,24.60
2019-03-22T13:09:09.617Z,24.30
2019-03-22T13:11:40.927Z,24.40
2019-03-22T13:14:13.390Z,24.50
2019-03-22T13:16:46.130Z,24.80
2019-03-22T13:19:18.527Z,24.90
2019-03-22T13:21:49.892Z,24.90
2019-03-22T13:24:21.290Z,25.30
2019-03-22T13:26:52.658Z,25.50
2019-03-22T13:29:24.106Z,25.80
2019-03-22T13:31:55.466Z,25.40
2019-03-22T13:34:27.735Z,25.30
2019-03-22T13:36:59.309Z,25.40
2019-03-22T13:39:30.817Z,25.60
2019-03-22T13:42:02.384Z,25.70
2019-03-22T13:44:33.980Z,25.60
2019-03-22T13:47:07.561Z,26.00
2019-03-22T13:49:39.279Z,26.20
2019-03-22T13:52:10.767Z,26.30
2019-03-22T13:54:42.207Z,26.50
2019-03-22T13:57:13.664Z,26.50
2019-03-22T13:59:44.967Z,26.10
2019-03-22T14:02:17.480Z,26.10
2019-03-22T14:04:48.839Z,25.50
2019-03-22T14:07:20.237Z,25.10
2019-03-22T14:09:52.072Z,25.30
2019-03-22T14:12:24.618Z,25.40
2019-03-22T14:14:56.393Z,25.70
2019-03-22T14:17:29.732Z,26.10
2019-03-22T14:20:10.880Z,26.30
2019-03-22T14:22:35.269Z,26.00
2019-03-22T14:25:06.658Z,25.60
2019-03-22T14:27:38.156Z,25.60
2019-03-22T14:30:10.134Z,25.00
2019-03-22T14:32:41.651Z,24.90
2019-03-22T14:35:13.002Z,25.20
2019-03-22T14:37:44.411Z,25.60
2019-03-22T14:40:15.975Z,26.20
2019-03-22T14:42:47.325Z,26.50
2019-03-22T14:45:18.739Z,26.90
2019-03-22T14:47:50.101Z,26.50
2019-03-22T14:50:22.556Z,26.70
2019-03-22T14:52:53.942Z,26.80
2019-03-22T14:55:25.279Z,26.80
2019-03-22T14:57:56.646Z,27.00
2019-03-22T15:00:28.051Z,27.20
2019-03-22T15:02:59.364Z,27.50
2019-03-22T15:05:30.700Z,27.40
2019-03-22T15:08:02.053Z,26.50
2019-03-22T15:10:33.501Z,26.20
2019-03-22T15:13:06.208Z,26.20
2019-03-22T15:15:55.309Z,25.40
2019-03-22T15:18:49.517Z,25.20
2019-03-22T15:21:39.862Z,24.80
2019-03-22T15:24:30.177Z,24.70
2019-03-22T15:27:38.830Z,24.50
2019-03-22T15:30:32.107Z,24.20
2019-03-22T15:33:34.341Z,24.00
2019-03-22T15:36:20.390Z,24.20
2019-03-22T15:39:20.184Z,24.50
2019-03-22T15:41:51.727Z,24.70
2019-03-22T15:46:54.694Z,25.00
2019-03-22T15:49:27.152Z,25.20
2019-03-22T15:51:58.428Z,25.30
2019-03-22T15:54:29.726Z,24.90
2019-03-22T15:57:01.148Z,24.90
2019-03-22T15:59:32.594Z,24.80
2019-03-22T16:02:03.946Z,24.80
2019-03-22T16:04:35.379Z,24.90
2019-03-22T16:07:06.882Z,24.90
2019-03-22T16:09:38.265Z,25.00
2019-03-22T16:12:09.622Z,25.00
2019-03-22T16:14:40.992Z,24.90
2019-03-22T16:17:12.815Z,24.20
2019-03-22T16:19:44.351Z,23.60
2019-03-22T16:22:15.778Z,23.50
2019-03-22T16:24:47.210Z,23.60
2019-03-22T16:27:18.735Z,23.60
2019-03-22T16:29:50.124Z,23.60
2019-03-22T16:32:21.475Z,23.60
2019-03-22T16:34:52.840Z,23.70
2019-03-22T16:37:24.203Z,23.70
2019-03-22T16:39:55.523Z,23.70
2019-03-22T16:42:26.893Z,23.50
2019-03-22T16:44:58.249Z,22.90
2019-03-22T16:47:29.635Z,22.70
2019-03-22T16:50:01.032Z,22.50
2019-03-22T16:52:32.520Z,22.30
2019-03-22T16:55:03.958Z,22.20
2019-03-22T16:57:35.289Z,22.10
2019-03-22T17:00:07.354Z,21.70
2019-03-22T17:02:38.735Z,21.50
2019-03-22T17:05:10.502Z,21.50
2019-03-22T17:07:41.867Z,21.30
2019-03-22T17:10:13.287Z,21.10
2019-03-22T17:12:45.825Z,20.80
2019-03-22T17:15:17.350Z,20.70
2019-03-22T17:17:48.939Z,20.60
2019-03-22T17:20:20.608Z,20.60
2019-03-22T17:22:52.042Z,20.50
2019-03-22T17:25:23.437Z,20.40
2019-03-22T17:27:54.902Z,20.30
2019-03-22T17:30:26.368Z,20.20
2019-03-22T17:32:58.012Z,20.20
2019-03-22T17:35:29.419Z,20.00
2019-03-22T17:38:00.808Z,19.80
2019-03-22T17:40:32.234Z,19.60
2019-03-22T17:43:03.691Z,19.50
2019-03-22T17:45:35.022Z,19.40
2019-03-22T17:48:07.277Z,19.30
2019-03-22T17:50:38.796Z,19.40
2019-03-22T17:53:10.199Z,19.70
2019-03-22T17:55:41.782Z,19.90
2019-03-22T17:58:13.296Z,20.00
2019-03-22T18:00:46.781Z,20.00
2019-03-22T18:03:18.197Z,19.90
2019-03-22T18:05:49.627Z,19.70
2019-03-22T18:08:21.009Z,19.70
2019-03-22T18:10:53.534Z,19.70
2019-03-22T18:13:24.954Z,19.60
2019-03-22T18:15:56.339Z,19.50
2019-03-22T18:18:28.448Z,19.60
2019-03-22T18:20:59.940Z,19.60
2019-03-22T18:23:35.899Z,19.70
2019-03-22T18:26:05.335Z,19.90
2019-03-22T18:28:36.849Z,20.00
2019-03-22T18:31:08.343Z,20.00
2019-03-22T18:33:39.787Z,19.90
2019-03-22T18:36:11.200Z,19.90
2019-03-22T18:38:42.531Z,20.00
2019-03-22T18:41:13.986Z,19.80
2019-03-22T18:43:45.387Z,19.50
2019-03-22T18:46:16.745Z,19.00
2019-03-22T18:48:48.360Z,18.70
2019-03-22T18:51:20.829Z,18.50
2019-03-22T18:53:52.155Z,18.30
2019-03-22T18:56:24.612Z,18.10
2019-03-22T18:58:55.952Z,17.70
2019-03-22T19:01:27.333Z,17.40
2019-03-22T19:03:58.681Z,17.20
2019-03-22T19:10:16.245Z,16.80
2019-03-22T19:12:47.824Z,16.50
2019-03-22T19:15:19.278Z,16.30
2019-03-22T19:17:50.889Z,16.20
2019-03-22T19:20:22.387Z,16.00
2019-03-22T19:22:55.432Z,15.80
2019-03-22T19:25:26.819Z,15.70
2019-03-22T19:27:58.326Z,15.40
2019-03-22T19:30:29.645Z,15.20
2019-03-22T19:33:01.187Z,15.20
2019-03-22T19:35:33.715Z,15.10
2019-03-22T19:38:05.142Z,15.00
2019-03-22T19:40:36.881Z,14.90
2019-03-22T19:43:08.286Z,14.60
2019-03-22T19:45:39.811Z,14.40
2019-03-22T19:48:11.352Z,14.30
2019-03-22T19:50:42.866Z,14.20
2019-03-22T19:53:14.411Z,14.00
2019-03-22T19:55:46.061Z,13.90
2019-03-22T19:58:17.530Z,13.90
2019-03-22T20:00:49.951Z,13.80
2019-03-22T20:03:21.355Z,13.60
2019-03-22T20:05:54.250Z,13.50
2019-03-22T20:08:25.751Z,13.40
2019-03-22T20:10:57.396Z,13.20
2019-03-22T20:16:10.166Z,13.00
2019-03-22T20:18:41.723Z,13.00
2019-03-22T20:21:13.327Z,13.00
2019-03-22T20:23:53.274Z,12.90
2019-03-22T20:26:18.382Z,12.90
2019-03-22T20:28:49.887Z,12.80
2019-03-22T20:31:21.726Z,12.70
2019-03-22T20:33:53.187Z,12.60
2019-03-22T20:36:24.561Z,12.50
2019-03-22T20:38:56.206Z,12.40
2019-03-22T20:41:27.645Z,12.40
2019-03-22T20:43:59.106Z,12.20
2019-03-22T20:46:30.673Z,12.10
2019-03-22T20:49:02.309Z,12.10
2019-03-22T20:51:33.707Z,12.00
2019-03-22T20:54:05.057Z,12.00
2019-03-22T20:56:37.421Z,12.00
2019-03-22T20:59:08.952Z,11.90
2019-03-22T21:01:40.382Z,11.90
2019-03-22T21:04:13.315Z,11.90
2019-03-22T21:06:44.743Z,11.70
2019-03-22T21:09:16.172Z,11.70
2019-03-22T21:11:47.748Z,11.60
2019-03-22T21:14:19.402Z,11.50
2019-03-22T21:16:50.861Z,11.40
2019-03-22T21:19:22.382Z,11.30
2019-03-22T21:21:53.726Z,11.30
2019-03-22T21:24:26.218Z,11.30
2019-03-22T21:26:59.742Z,11.20
2019-03-22T21:29:31.178Z,11.10
2019-03-22T21:32:02.533Z,11.00
2019-03-22T21:34:34.042Z,11.00
2019-03-22T21:37:05.412Z,10.90
2019-03-22T21:39:36.842Z,10.90
2019-03-22T21:42:09.524Z,10.80
2019-03-22T21:44:40.876Z,10.70
2019-03-22T21:47:12.236Z,10.70
2019-03-22T21:49:45.130Z,10.70
2019-03-22T21:52:16.669Z,10.60
2019-03-22T21:54:48.089Z,10.60
2019-03-22T21:57:21.382Z,10.60
2019-03-22T21:59:52.724Z,10.50
2019-03-22T22:02:24.247Z,10.50
2019-03-22T22:04:55.720Z,10.40
2019-03-22T22:07:27.064Z,10.30
2019-03-22T22:09:58.474Z,10.30
2019-03-22T22:12:29.994Z,10.20
2019-03-22T22:15:01.458Z,10.10
2019-03-22T22:17:32.862Z,10.10
2019-03-22T22:20:06.950Z,10.00
2019-03-22T22:22:38.364Z,9.90
2019-03-22T22:25:11.040Z,9.90
2019-03-22T22:27:44.358Z,9.80
2019-03-22T22:30:15.914Z,9.70
2019-03-22T22:32:47.298Z,9.70
2019-03-22T22:35:18.653Z,9.60
2019-03-22T22:37:50.207Z,9.70
2019-03-22T22:40:22.622Z,9.70
2019-03-22T22:42:55.357Z,9.70
2019-03-22T22:45:26.669Z,9.60
2019-03-22T22:47:58.000Z,9.60
2019-03-22T22:50:29.379Z,9.60
2019-03-22T22:53:00.701Z,9.60
2019-03-22T22:55:32.308Z,9.60
2019-03-22T22:58:04.936Z,9.60
2019-03-22T23:00:36.621Z,9.50
2019-03-22T23:03:08.180Z,9.50
2019-03-22T23:05:41.798Z,9.40
2019-03-22T23:08:13.201Z,9.30
2019-03-22T23:10:44.622Z,9.30
2019-03-22T23:13:15.934Z,9.30
2019-03-22T23:15:47.281Z,9.30
2019-03-22T23:18:18.701Z,9.20
2019-03-22T23:20:50.114Z,9.20
2019-03-22T23:23:21.449Z,9.20
2019-03-22T23:25:53.821Z,9.10
2019-03-22T23:28:25.220Z,9.10
2019-03-22T23:30:56.529Z,9.00
2019-03-22T23:33:27.915Z,9.00
2019-03-22T23:35:59.233Z,9.10
2019-03-22T23:38:30.571Z,9.00
2019-03-22T23:41:01.964Z,8.90
2019-03-22T23:43:33.327Z,8.80
2019-03-22T23:46:04.711Z,8.80
2019-03-22T23:48:36.036Z,8.80
2019-03-22T23:51:07.533Z,8.70
2019-03-22T23:53:38.895Z,8.60
2019-03-22T23:56:10.243Z,8.60
2019-03-22T23:58:42.369Z,8.50
